createdAt,value
2018-12-23T00:00:16.234Z,6.70
2018-12-23T00:02:45.602Z,6.50
2018-12-23T00:05:15.099Z,6.40
2018-12-23T00:07:44.586Z,6.30
2018-12-23T00:10:13.964Z,6.20
2018-12-23T00:12:43.339Z,6.10
2018-12-23T00:15:12.737Z,6.20
2018-12-23T00:17:42.228Z,6.30
2018-12-23T00:20:11.697Z,6.40
2018-12-23T00:22:41.104Z,6.40
2018-12-23T00:25:10.595Z,6.50
2018-12-23T00:27:39.951Z,6.50
2018-12-23T00:30:09.896Z,6.50
2018-12-23T00:32:39.282Z,6.30
2018-12-23T00:35:08.664Z,6.20
2018-12-23T00:37:38.044Z,6.00
2018-12-23T00:40:07.661Z,5.90
2018-12-23T00:42:37.088Z,5.70
2018-12-23T00:45:07.288Z,5.60
2018-12-23T00:47:36.764Z,5.40
2018-12-23T00:50:07.616Z,5.30
2018-12-23T00:52:36.996Z,5.10
2018-12-23T00:55:06.994Z,5.00
2018-12-23T00:57:36.361Z,5.00
2018-12-23T01:00:06.808Z,4.90
2018-12-23T01:02:36.212Z,4.80
2018-12-23T01:05:06.565Z,4.70
2018-12-23T01:07:35.988Z,4.60
2018-12-23T01:10:06.331Z,4.40
2018-12-23T01:12:35.817Z,4.20
2018-12-23T01:15:05.597Z,4.10
2018-12-23T01:17:35.042Z,3.90
2018-12-23T01:20:04.860Z,3.80
2018-12-23T01:22:34.322Z,4.00
2018-12-23T01:25:04.071Z,4.00
2018-12-23T01:27:33.576Z,3.90
2018-12-23T01:30:03.072Z,3.90
2018-12-23T01:32:32.548Z,4.00
2018-12-23T01:35:01.927Z,4.00
2018-12-23T01:37:31.300Z,3.80
2018-12-23T01:40:00.679Z,3.80
2018-12-23T01:42:30.156Z,3.80
2018-12-23T01:44:59.560Z,3.70
2018-12-23T01:47:28.941Z,3.60
2018-12-23T01:49:58.576Z,3.60
2018-12-23T01:52:27.954Z,3.70
2018-12-23T01:54:57.465Z,3.80
2018-12-23T01:57:26.865Z,3.90
2018-12-23T01:59:56.232Z,3.90
2018-12-23T02:02:25.911Z,3.90
2018-12-23T02:04:55.400Z,3.90
2018-12-23T02:07:24.780Z,3.70
2018-12-23T02:09:54.508Z,3.40
2018-12-23T02:12:23.941Z,3.20
2018-12-23T02:14:53.548Z,3.30
2018-12-23T02:17:23.024Z,3.30
2018-12-23T02:19:52.410Z,3.50
2018-12-23T02:22:21.916Z,3.30
2018-12-23T02:24:51.433Z,3.20
2018-12-23T02:27:20.818Z,3.10
2018-12-23T02:29:50.184Z,3.00
2018-12-23T02:32:19.595Z,3.00
2018-12-23T02:34:48.973Z,3.00
2018-12-23T02:37:18.389Z,3.10
2018-12-23T02:39:47.752Z,3.10
2018-12-23T02:42:17.124Z,3.10
2018-12-23T02:44:46.499Z,2.90
2018-12-23T02:47:15.947Z,2.80
2018-12-23T02:49:45.337Z,2.70
2018-12-23T02:52:14.857Z,2.80
2018-12-23T02:54:44.272Z,2.80
2018-12-23T02:57:13.804Z,2.80
2018-12-23T02:59:43.311Z,2.80
2018-12-23T03:02:12.796Z,2.90
2018-12-23T03:04:42.272Z,3.10
2018-12-23T03:07:11.652Z,3.10
2018-12-23T03:09:41.041Z,3.10
2018-12-23T03:12:10.422Z,3.10
2018-12-23T03:14:39.945Z,3.00
2018-12-23T03:17:09.360Z,2.90
2018-12-23T03:19:38.716Z,2.90
2018-12-23T03:22:08.240Z,2.80
2018-12-23T03:24:37.674Z,2.70
2018-12-23T03:27:07.055Z,2.70
2018-12-23T03:29:36.435Z,2.60
2018-12-23T03:32:05.822Z,2.60
2018-12-23T03:34:35.241Z,2.60
2018-12-23T03:37:04.740Z,2.50
2018-12-23T03:39:34.188Z,2.50
2018-12-23T03:42:03.575Z,2.40
2018-12-23T03:44:32.962Z,2.40
2018-12-23T03:47:02.328Z,2.40
2018-12-23T03:49:31.789Z,2.40
2018-12-23T03:52:01.177Z,2.30
2018-12-23T03:54:30.603Z,2.30
2018-12-23T03:56:59.974Z,2.40
2018-12-23T03:59:29.366Z,2.30
2018-12-23T04:01:58.809Z,2.30
2018-12-23T04:04:28.224Z,2.20
2018-12-23T04:06:57.645Z,2.10
2018-12-23T04:09:27.142Z,2.10
2018-12-23T04:11:56.608Z,2.10
2018-12-23T04:14:26.006Z,2.10
2018-12-23T04:16:55.508Z,2.00
2018-12-23T04:19:24.888Z,2.00
2018-12-23T04:21:54.535Z,1.90
2018-12-23T04:24:23.885Z,1.90
2018-12-23T04:26:53.393Z,1.80
2018-12-23T04:29:22.784Z,1.80
2018-12-23T04:31:52.277Z,1.80
2018-12-23T04:34:21.732Z,1.70
2018-12-23T04:36:51.168Z,1.70
2018-12-23T04:39:20.679Z,1.70
2018-12-23T04:41:50.153Z,1.70
2018-12-23T04:44:19.543Z,1.70
2018-12-23T04:46:48.933Z,1.70
2018-12-23T04:49:24.956Z,1.70
2018-12-23T04:51:54.386Z,1.70
2018-12-23T04:54:23.867Z,1.60
2018-12-23T04:56:53.464Z,1.60
2018-12-23T04:59:22.867Z,1.60
2018-12-23T05:01:52.252Z,1.50
2018-12-23T05:04:21.640Z,1.50
2018-12-23T05:06:51.007Z,1.40
2018-12-23T05:09:20.457Z,1.30
2018-12-23T05:11:49.826Z,1.20
2018-12-23T05:14:19.325Z,1.10
2018-12-23T05:16:48.808Z,1.00
2018-12-23T05:19:18.207Z,1.00
2018-12-23T05:21:47.980Z,1.00
2018-12-23T05:24:17.444Z,1.00
2018-12-23T05:26:46.989Z,1.00
2018-12-23T05:29:16.418Z,1.00
2018-12-23T05:31:45.863Z,0.90
2018-12-23T05:34:15.227Z,0.90
2018-12-23T05:36:52.412Z,0.90
2018-12-23T05:39:16.170Z,0.80
2018-12-23T05:41:45.642Z,0.70
2018-12-23T05:44:15.025Z,0.60
2018-12-23T05:46:44.469Z,0.60
2018-12-23T05:49:15.741Z,0.50
2018-12-23T05:51:45.270Z,0.50
2018-12-23T05:54:14.646Z,0.50
2018-12-23T05:56:44.031Z,0.40
2018-12-23T05:59:13.437Z,0.30
2018-12-23T06:01:42.830Z,0.30
2018-12-23T06:04:12.348Z,0.20
2018-12-23T06:06:41.742Z,0.10
2018-12-23T06:09:11.210Z,0.10
2018-12-23T06:11:40.581Z,0.00
2018-12-23T06:14:09.950Z,0.00
2018-12-23T06:16:39.374Z,-0.10
2018-12-23T06:19:08.754Z,-0.10
2018-12-23T06:21:38.150Z,0.00
2018-12-23T06:24:07.605Z,0.00
2018-12-23T06:26:36.897Z,-0.10
2018-12-23T06:29:06.501Z,-0.10
2018-12-23T06:31:36.031Z,-0.20
2018-12-23T06:34:05.421Z,-0.20
2018-12-23T06:36:34.925Z,-0.20
2018-12-23T06:39:06.258Z,-0.20
2018-12-23T06:42:21.599Z,-0.10
2018-12-23T06:45:03.919Z,-0.10
2018-12-23T06:47:46.678Z,0.00
2018-12-23T06:50:27.485Z,-0.10
2018-12-23T06:53:17.286Z,-0.10
2018-12-23T06:56:01.371Z,0.10
2018-12-23T06:58:43.656Z,0.10
2018-12-23T07:01:26.382Z,0.10
2018-12-23T07:04:08.595Z,0.10
2018-12-23T07:06:51.311Z,0.10
2018-12-23T07:09:33.480Z,0.10
2018-12-23T07:12:16.190Z,0.30
2018-12-23T07:14:59.632Z,0.50
2018-12-23T07:17:42.104Z,0.80
2018-12-23T07:20:24.908Z,1.00
2018-12-23T07:23:07.175Z,1.10
2018-12-23T07:25:49.252Z,1.10
2018-12-23T07:28:31.659Z,1.10
2018-12-23T07:31:15.530Z,1.00
2018-12-23T07:33:57.402Z,0.90
2018-12-23T07:36:39.425Z,0.90
2018-12-23T07:39:21.904Z,0.80
2018-12-23T07:42:04.543Z,0.90
2018-12-23T07:44:46.690Z,0.90
2018-12-23T07:47:28.795Z,0.90
2018-12-23T07:50:11.559Z,0.90
2018-12-23T07:52:53.594Z,1.10
2018-12-23T07:55:36.067Z,1.10
2018-12-23T07:58:19.459Z,1.20
2018-12-23T08:01:02.242Z,1.20
2018-12-23T08:03:44.215Z,1.30
2018-12-23T08:06:26.814Z,1.30
2018-12-23T08:09:09.448Z,1.40
2018-12-23T08:11:40.273Z,1.50
2018-12-23T08:14:10.989Z,1.60
2018-12-23T08:16:53.543Z,1.60
2018-12-23T08:19:36.266Z,1.70
2018-12-23T08:22:18.543Z,1.80
2018-12-23T08:25:01.401Z,1.90
2018-12-23T08:27:43.767Z,2.00
2018-12-23T08:30:26.681Z,2.10
2018-12-23T08:33:08.959Z,2.20
2018-12-23T08:35:39.760Z,2.30
2018-12-23T08:38:29.530Z,2.40
2018-12-23T08:41:12.783Z,2.50
2018-12-23T08:43:54.894Z,2.50
2018-12-23T08:46:39.322Z,2.60
2018-12-23T08:49:21.570Z,2.70
2018-12-23T08:52:03.922Z,2.80
2018-12-23T08:54:45.874Z,2.90
2018-12-23T08:57:27.887Z,3.00
2018-12-23T09:00:10.290Z,3.30
2018-12-23T09:02:52.246Z,3.50
2018-12-23T09:05:34.406Z,3.60
2018-12-23T09:08:16.917Z,3.80
2018-12-23T09:10:58.922Z,3.80
2018-12-23T09:13:41.173Z,3.90
2018-12-23T09:16:23.519Z,4.00
2018-12-23T09:19:06.139Z,4.10
2018-12-23T09:21:48.057Z,4.30
2018-12-23T09:24:30.486Z,4.50
2018-12-23T09:27:12.566Z,4.70
2018-12-23T09:29:54.534Z,4.80
2018-12-23T09:32:36.374Z,5.00
2018-12-23T09:35:18.390Z,5.00
2018-12-23T09:38:01.529Z,5.00
2018-12-23T09:40:43.884Z,5.10
2018-12-23T09:43:26.242Z,5.10
2018-12-23T09:46:08.353Z,5.20
2018-12-23T09:48:50.850Z,5.20
2018-12-23T09:51:33.383Z,5.30
2018-12-23T09:54:15.579Z,5.40
2018-12-23T09:56:57.567Z,5.50
2018-12-23T09:59:40.002Z,5.50
2018-12-23T10:02:21.898Z,5.60
2018-12-23T10:05:04.010Z,5.70
2018-12-23T10:07:46.398Z,5.70
2018-12-23T10:10:28.971Z,5.80
2018-12-23T10:13:10.882Z,5.80
2018-12-23T10:15:53.478Z,5.90
2018-12-23T10:18:36.155Z,6.00
2018-12-23T10:21:18.374Z,6.00
2018-12-23T10:24:00.381Z,6.10
2018-12-23T10:26:42.598Z,6.20
2018-12-23T10:29:25.089Z,6.20
2018-12-23T10:32:06.942Z,6.30
2018-12-23T10:34:49.562Z,6.20
2018-12-23T10:37:31.918Z,6.30
2018-12-23T10:40:14.286Z,6.50
2018-12-23T10:42:55.126Z,6.60
2018-12-23T10:45:44.885Z,6.70
2018-12-23T10:48:28.623Z,7.00
2018-12-23T10:51:11.350Z,7.00
2018-12-23T10:53:53.562Z,7.10
2018-12-23T10:56:36.189Z,7.20
2018-12-23T10:59:18.127Z,7.40
2018-12-23T11:02:00.535Z,7.40
2018-12-23T11:04:42.473Z,7.40
2018-12-23T11:07:24.481Z,7.50
2018-12-23T11:10:07.126Z,7.50
2018-12-23T11:12:49.198Z,7.50
2018-12-23T11:15:29.923Z,7.50
2018-12-23T11:18:19.656Z,7.50
2018-12-23T11:21:03.318Z,7.60
2018-12-23T11:23:45.192Z,7.60
2018-12-23T11:26:27.734Z,7.60
2018-12-23T11:29:10.083Z,7.60
2018-12-23T11:31:52.460Z,7.50
2018-12-23T11:34:35.278Z,7.40
2018-12-23T11:37:17.174Z,7.40
2018-12-23T11:39:59.854Z,7.20
2018-12-23T11:42:42.514Z,7.10
2018-12-23T11:45:25.385Z,7.00
2018-12-23T11:48:08.137Z,6.90
2018-12-23T11:50:50.630Z,6.90
2018-12-23T11:53:32.755Z,6.90
2018-12-23T11:56:14.727Z,6.90
2018-12-23T11:58:56.979Z,6.90
2018-12-23T12:01:39.700Z,6.90
2018-12-23T12:04:21.570Z,6.90
2018-12-23T12:07:02.310Z,6.80
2018-12-23T12:09:51.970Z,6.80
2018-12-23T12:12:35.230Z,6.90
2018-12-23T12:15:17.928Z,6.90
2018-12-23T12:18:00.537Z,7.00
2018-12-23T12:20:43.110Z,7.00
2018-12-23T12:23:24.680Z,7.00
2018-12-23T12:26:14.427Z,7.00
2018-12-23T12:28:57.814Z,7.00
2018-12-23T12:31:39.749Z,7.10
2018-12-23T12:34:21.721Z,7.20
2018-12-23T12:37:02.379Z,7.30
2018-12-23T12:39:52.118Z,7.40
2018-12-23T12:42:34.450Z,7.50
2018-12-23T12:45:24.202Z,7.50
2018-12-23T12:48:08.147Z,7.50
2018-12-23T12:50:50.843Z,7.50
2018-12-23T12:53:33.195Z,7.50
2018-12-23T12:56:15.478Z,7.50
2018-12-23T12:58:57.651Z,7.60
2018-12-23T13:01:40.334Z,7.60
2018-12-23T13:04:22.538Z,7.70
2018-12-23T13:07:04.498Z,7.70
2018-12-23T13:09:46.970Z,7.70
2018-12-23T13:12:29.162Z,7.60
2018-12-23T13:15:11.047Z,7.60
2018-12-23T13:17:52.858Z,7.60
2018-12-23T13:20:35.080Z,7.60
2018-12-23T13:23:17.071Z,7.50
2018-12-23T13:25:59.925Z,7.50
2018-12-23T13:28:42.270Z,7.40
2018-12-23T13:31:24.482Z,7.40
2018-12-23T13:34:06.654Z,7.40
2018-12-23T13:36:48.814Z,7.40
2018-12-23T13:39:30.632Z,7.40
2018-12-23T13:42:16.037Z,7.40
2018-12-23T13:45:25.022Z,7.50
2018-12-23T13:48:08.471Z,7.40
2018-12-23T13:50:50.706Z,7.40
2018-12-23T13:53:33.103Z,7.40
2018-12-23T13:56:15.434Z,7.40
2018-12-23T13:58:57.957Z,7.50
2018-12-23T14:01:40.012Z,7.50
2018-12-23T14:04:22.166Z,7.50
2018-12-23T14:07:04.398Z,7.60
2018-12-23T14:09:46.759Z,7.50
2018-12-23T14:12:28.647Z,7.50
2018-12-23T14:15:09.438Z,7.30
2018-12-23T14:17:59.106Z,7.30
2018-12-23T14:20:42.618Z,7.20
2018-12-23T14:23:25.110Z,7.20
2018-12-23T14:26:07.542Z,7.10
2018-12-23T14:28:49.741Z,7.10
2018-12-23T14:31:32.074Z,7.10
2018-12-23T14:34:13.913Z,7.20
2018-12-23T14:37:05.910Z,7.20
2018-12-23T14:39:49.983Z,7.20
2018-12-23T14:42:32.078Z,7.10
2018-12-23T14:45:14.894Z,7.00
2018-12-23T14:47:57.538Z,6.80
2018-12-23T14:50:40.440Z,6.70
2018-12-23T14:53:21.332Z,6.50
2018-12-23T14:56:11.010Z,6.40
2018-12-23T14:58:55.159Z,6.30
2018-12-23T15:01:38.802Z,6.10
2018-12-23T15:04:20.525Z,6.00
2018-12-23T15:07:03.496Z,5.90
2018-12-23T15:09:48.378Z,5.80
2018-12-23T15:12:31.693Z,5.70
2018-12-23T15:15:14.830Z,5.70
2018-12-23T15:17:57.607Z,5.60
2018-12-23T15:20:40.014Z,5.50
2018-12-23T15:23:23.562Z,5.50
2018-12-23T15:26:07.559Z,5.40
2018-12-23T15:28:53.327Z,5.40
2018-12-23T15:31:36.354Z,5.30
2018-12-23T15:34:19.065Z,5.10
2018-12-23T15:37:01.322Z,5.00
2018-12-23T15:39:43.902Z,4.90
2018-12-23T15:42:27.050Z,4.70
2018-12-23T15:45:09.334Z,4.60
2018-12-23T15:47:51.270Z,4.50
2018-12-23T15:50:34.301Z,4.50
2018-12-23T15:53:16.989Z,4.50
2018-12-23T15:55:58.854Z,4.50
2018-12-23T15:58:41.534Z,4.50
2018-12-23T16:01:23.606Z,4.40
2018-12-23T16:04:05.526Z,4.40
2018-12-23T16:06:48.294Z,4.30
2018-12-23T16:09:30.726Z,4.40
2018-12-23T16:12:13.106Z,4.40
2018-12-23T16:14:55.682Z,4.30
2018-12-23T16:17:38.105Z,4.40
2018-12-23T16:20:20.450Z,4.30
2018-12-23T16:23:02.514Z,4.30
2018-12-23T16:25:44.494Z,4.30
2018-12-23T16:28:27.126Z,4.30
2018-12-23T16:31:09.778Z,4.30
2018-12-23T16:33:51.601Z,4.30
2018-12-23T16:36:33.594Z,4.40
2018-12-23T16:39:15.555Z,4.40
2018-12-23T16:41:57.895Z,4.30
2018-12-23T16:44:40.229Z,4.30
2018-12-23T16:47:22.495Z,4.20
2018-12-23T16:50:04.941Z,4.30
2018-12-23T16:52:47.546Z,4.30
2018-12-23T16:55:29.862Z,4.40
2018-12-23T16:58:11.753Z,4.40
2018-12-23T17:00:54.310Z,4.40
2018-12-23T17:03:36.842Z,4.50
2018-12-23T17:06:19.386Z,4.60
2018-12-23T17:09:01.763Z,4.70
2018-12-23T17:11:43.690Z,4.70
2018-12-23T17:14:26.195Z,4.80
2018-12-23T17:17:08.159Z,4.90
2018-12-23T17:19:50.649Z,4.90
2018-12-23T17:22:33.263Z,4.80
2018-12-23T17:25:15.483Z,4.70
2018-12-23T17:27:57.827Z,4.60
2018-12-23T17:30:40.630Z,4.60
2018-12-23T17:33:23.287Z,4.50
2018-12-23T17:36:04.099Z,4.50
2018-12-23T17:38:53.881Z,4.50
2018-12-23T17:41:37.202Z,4.40
2018-12-23T17:44:19.105Z,4.40
2018-12-23T17:47:01.354Z,4.40
2018-12-23T17:49:43.386Z,4.40
2018-12-23T17:52:25.865Z,4.40
2018-12-23T17:55:08.127Z,4.40
2018-12-23T17:57:50.420Z,4.40
2018-12-23T18:00:32.287Z,4.40
2018-12-23T18:03:14.922Z,4.30
2018-12-23T18:05:57.619Z,4.30
2018-12-23T18:08:40.439Z,4.30
2018-12-23T18:11:22.885Z,4.30
2018-12-23T18:14:04.736Z,4.20
2018-12-23T18:16:47.129Z,4.20
2018-12-23T18:19:29.103Z,4.20
2018-12-23T18:22:14.243Z,4.20
2018-12-23T18:24:56.943Z,4.20
2018-12-23T18:27:38.849Z,4.20
2018-12-23T18:30:21.154Z,4.20
2018-12-23T18:33:03.389Z,4.20
2018-12-23T18:35:46.045Z,4.30
2018-12-23T18:38:28.670Z,4.20
2018-12-23T18:41:11.553Z,4.20
2018-12-23T18:43:53.979Z,4.10
2018-12-23T18:46:36.218Z,4.10
2018-12-23T18:49:18.590Z,4.10
2018-12-23T18:52:00.506Z,4.10
2018-12-23T18:54:42.831Z,4.10
2018-12-23T18:57:25.702Z,4.10
2018-12-23T19:00:08.098Z,4.10
2018-12-23T19:02:50.373Z,4.10
2018-12-23T19:05:32.748Z,4.00
2018-12-23T19:08:15.157Z,4.00
2018-12-23T19:10:57.539Z,3.90
2018-12-23T19:13:39.782Z,3.80
2018-12-23T19:16:21.977Z,3.80
2018-12-23T19:19:04.450Z,3.90
2018-12-23T19:21:46.723Z,3.90
2018-12-23T19:24:29.126Z,3.90
2018-12-23T19:27:11.922Z,3.90
2018-12-23T19:29:53.851Z,3.90
2018-12-23T19:32:35.902Z,3.80
2018-12-23T19:35:18.542Z,3.80
2018-12-23T19:38:00.933Z,3.70
2018-12-23T19:40:50.217Z,3.70
2018-12-23T19:43:27.575Z,3.70
2018-12-23T19:46:10.137Z,3.70
2018-12-23T19:48:52.518Z,3.70
2018-12-23T19:51:35.090Z,3.70
2018-12-23T19:54:17.620Z,3.70
2018-12-23T19:57:00.326Z,3.70
2018-12-23T19:59:42.762Z,3.70
2018-12-23T20:02:24.741Z,3.70
2018-12-23T20:05:08.787Z,3.70
2018-12-23T20:07:51.502Z,3.60
2018-12-23T20:10:33.379Z,3.60
2018-12-23T20:13:15.855Z,3.60
2018-12-23T20:16:06.202Z,3.60
2018-12-23T20:19:16.392Z,3.60
2018-12-23T20:22:00.154Z,3.60
2018-12-23T20:24:55.105Z,3.60
2018-12-23T20:28:05.546Z,3.60
2018-12-23T20:30:47.547Z,3.70
2018-12-23T20:33:29.830Z,3.60
2018-12-23T20:36:12.309Z,3.60
2018-12-23T20:38:54.992Z,3.60
2018-12-23T20:45:04.466Z,3.60
2018-12-23T20:47:48.570Z,3.60
2018-12-23T20:54:15.505Z,3.60
2018-12-23T20:57:25.741Z,3.60
2018-12-23T21:00:09.035Z,3.60
2018-12-23T21:02:51.858Z,3.50
2018-12-23T21:05:33.751Z,3.50
2018-12-23T21:08:16.182Z,3.50
2018-12-23T21:10:59.117Z,3.50
2018-12-23T21:13:41.979Z,3.50
2018-12-23T21:16:24.705Z,3.50
2018-12-23T21:19:07.089Z,3.50
2018-12-23T21:21:49.300Z,3.50
2018-12-23T21:24:31.262Z,3.50
2018-12-23T21:27:14.087Z,3.50
2018-12-23T21:29:56.762Z,3.40
2018-12-23T21:32:39.510Z,3.30
2018-12-23T21:35:21.682Z,3.20
2018-12-23T21:38:11.996Z,3.10
2018-12-23T21:40:48.126Z,3.10
2018-12-23T21:43:30.634Z,3.00
2018-12-23T21:46:13.246Z,3.00
2018-12-23T21:48:55.771Z,3.00
2018-12-23T21:51:38.510Z,3.20
2018-12-23T21:54:21.726Z,3.30
2018-12-23T21:57:03.795Z,3.30
2018-12-23T21:59:46.232Z,3.20
2018-12-23T22:02:31.851Z,3.10
2018-12-23T22:05:34.862Z,3.00
2018-12-23T22:11:59.207Z,3.00
2018-12-23T22:14:41.559Z,3.10
2018-12-23T22:17:23.479Z,3.10
2018-12-23T22:20:05.794Z,3.00
2018-12-23T22:22:47.699Z,3.00
2018-12-23T22:25:29.627Z,2.90
2018-12-23T22:28:11.974Z,2.90
2018-12-23T22:30:54.042Z,2.90
2018-12-23T22:33:36.227Z,2.90
2018-12-23T22:36:07.065Z,2.90
2018-12-23T22:38:58.255Z,2.80
2018-12-23T22:41:42.018Z,2.80
2018-12-23T22:44:24.295Z,2.80
2018-12-23T22:47:06.152Z,2.80
2018-12-23T22:49:48.227Z,2.70
2018-12-23T22:52:30.906Z,2.60
2018-12-23T22:55:13.580Z,2.50
2018-12-23T22:57:57.911Z,2.40
2018-12-23T23:00:40.670Z,2.40
2018-12-23T23:03:22.503Z,2.30
2018-12-23T23:06:04.602Z,2.30
2018-12-23T23:08:46.611Z,2.20
2018-12-23T23:11:29.107Z,2.20
2018-12-23T23:14:11.832Z,2.10
2018-12-23T23:16:54.354Z,2.10
2018-12-23T23:19:36.547Z,2.10
2018-12-23T23:22:19.443Z,2.10
2018-12-23T23:25:01.833Z,2.00
2018-12-23T23:27:44.432Z,2.00
2018-12-23T23:30:15.218Z,2.00
2018-12-23T23:33:10.033Z,2.10
2018-12-23T23:35:53.731Z,2.10
2018-12-23T23:38:36.012Z,2.00
2018-12-23T23:41:18.418Z,2.00
2018-12-23T23:44:02.335Z,2.10
2018-12-23T23:46:33.102Z,2.10
2018-12-23T23:49:22.782Z,2.10
2018-12-23T23:52:06.246Z,2.10
2018-12-23T23:54:48.586Z,1.90
2018-12-23T23:57:31.130Z,1.80
